Time;durP1;ratioP1;P1;durP2;ratioP2;P2;SDS_P1;SDS_P2;PMS_P1;PMS_P2;Temp;Humidity;BMP_temperature;BMP_pressure;BME280_temperature;BME280_humidity;BME280_pressure;Samples;Min_cycle;Max_cycle;Signal;HPM_P1;HPM_P2
2022/06/28 00:00:27;;;;;;;5.40;3.00;;;14.10;99.90;;;;;;5009851;28;20049;-43
2022/06/28 00:02:53;;;;;;;4.30;2.97;;;14.00;99.90;;;;;;5007287;28;20498;-42
2022/06/28 00:05:19;;;;;;;4.63;2.88;;;14.00;99.90;;;;;;5007772;28;20081;-42
2022/06/28 00:07:44;;;;;;;5.00;2.85;;;14.00;99.90;;;;;;5007976;28;20045;-45
2022/06/28 00:10:13;;;;;;;6.28;3.45;;;14.00;99.90;;;;;;5004057;28;20111;-42
2022/06/28 00:12:39;;;;;;;6.50;3.08;;;14.00;99.90;;;;;;5002540;28;20069;-44
2022/06/28 00:17:52;;;;;;;5.93;3.40;;;14.00;99.90;;;;;;5009974;28;20057;-44
2022/06/28 00:20:18;;;;;;;7.25;3.35;;;14.10;99.90;;;;;;5007071;28;20053;-46
2022/06/28 00:22:44;;;;;;;4.88;3.28;;;14.00;99.90;;;;;;5009543;28;20174;-42
2022/06/28 00:25:10;;;;;;;5.80;3.15;;;14.10;99.90;;;;;;5008053;28;20169;-43
2022/06/28 00:27:36;;;;;;;5.43;3.50;;;14.00;99.90;;;;;;5006874;28;20100;-44
2022/06/28 00:30:04;;;;;;;5.00;3.55;;;14.00;99.90;;;;;;5008135;28;20045;-42
2022/06/28 00:32:30;;;;;;;5.22;3.80;;;14.00;99.90;;;;;;5010747;28;20053;-44
2022/06/28 00:34:55;;;;;;;4.88;3.10;;;13.90;99.90;;;;;;5011269;28;20034;-43
2022/06/28 00:37:21;;;;;;;5.80;3.92;;;13.80;99.90;;;;;;5005932;28;20038;-43
2022/06/28 00:39:47;;;;;;;6.10;3.38;;;13.80;99.90;;;;;;5004236;28;20360;-42
2022/06/28 00:42:13;;;;;;;10.05;3.92;;;13.80;99.90;;;;;;5002310;28;20356;-45
2022/06/28 00:44:40;;;;;;;8.27;3.45;;;13.70;99.90;;;;;;5011489;28;20104;-42
2022/06/28 00:47:07;;;;;;;4.68;3.13;;;13.70;99.90;;;;;;5006970;28;20111;-44
2022/06/28 00:49:33;;;;;;;5.15;3.20;;;13.70;99.90;;;;;;5014021;28;20046;-43
2022/06/28 00:52:02;;;;;;;7.90;3.88;;;13.70;99.90;;;;;;5007594;28;20037;-43
2022/06/28 00:54:29;;;;;;;7.63;3.75;;;13.60;99.90;;;;;;5005116;28;20029;-43
2022/06/28 00:56:55;;;;;;;6.18;4.07;;;13.60;99.90;;;;;;5009929;28;20034;-47
2022/06/28 00:59:21;;;;;;;7.05;3.67;;;13.50;99.90;;;;;;5005320;28;20038;-43
2022/06/28 01:01:47;;;;;;;6.85;3.83;;;13.50;99.90;;;;;;5008678;28;20063;-42
2022/06/28 01:04:13;;;;;;;6.47;3.78;;;13.50;99.90;;;;;;5006693;28;20069;-44
2022/06/28 01:06:38;;;;;;;7.15;3.92;;;13.40;99.90;;;;;;5007135;28;20084;-42
2022/06/28 01:09:04;;;;;;;6.53;3.88;;;13.30;99.90;;;;;;5008373;28;20078;-44
2022/06/28 01:11:31;;;;;;;7.63;4.05;;;13.20;99.90;;;;;;5008191;28;20030;-44
2022/06/28 01:14:05;;;;;;;5.85;4.32;;;13.20;99.90;;;;;;5023496;28;20140;-48
2022/06/28 01:16:31;;;;;;;7.35;4.63;;;13.10;99.90;;;;;;5014245;28;20038;-43
2022/06/28 01:18:57;;;;;;;7.68;4.30;;;13.10;99.90;;;;;;5006739;28;20360;-43
2022/06/28 01:21:27;;;;;;;8.00;3.70;;;13.00;99.90;;;;;;5006933;28;20134;-43
2022/06/28 01:23:54;;;;;;;7.07;3.90;;;13.00;99.90;;;;;;5005968;28;20077;-42
2022/06/28 01:26:20;;;;;;;6.25;3.47;;;13.00;99.90;;;;;;5006605;28;20526;-43
2022/06/28 01:28:50;;;;;;;6.35;4.40;;;13.00;99.90;;;;;;5007577;28;20046;-43
2022/06/28 01:31:20;;;;;;;6.43;3.80;;;12.90;99.90;;;;;;5003494;28;20026;-44
2022/06/28 01:33:47;;;;;;;8.65;3.75;;;12.90;99.90;;;;;;5009526;28;20076;-46
2022/06/28 01:36:13;;;;;;;7.47;4.10;;;12.80;99.90;;;;;;5007309;28;20038;-45
2022/06/28 01:38:40;;;;;;;6.28;3.70;;;12.80;99.90;;;;;;5007828;28;20038;-44
2022/06/28 01:41:07;;;;;;;6.68;3.42;;;12.80;99.90;;;;;;5009960;28;20430;-43
2022/06/28 01:43:36;;;;;;;5.18;3.85;;;12.80;99.90;;;;;;5000932;28;20205;-44
2022/06/28 01:46:07;;;;;;;6.88;4.20;;;12.90;99.90;;;;;;5005348;28;20052;-44
2022/06/28 01:48:33;;;;;;;5.20;4.32;;;12.90;99.90;;;;;;5004283;28;20413;-43
2022/06/28 01:50:59;;;;;;;5.72;3.63;;;12.90;99.90;;;;;;5006916;28;20182;-43
2022/06/28 01:53:26;;;;;;;7.82;5.20;;;12.90;99.90;;;;;;5000398;28;20431;-44
2022/06/28 01:55:51;;;;;;;6.72;4.45;;;12.80;99.90;;;;;;5008724;28;20042;-46
2022/06/28 01:58:17;;;;;;;8.48;4.05;;;12.80;99.90;;;;;;5008972;28;20092;-43
2022/06/28 02:00:43;;;;;;;5.43;3.55;;;12.80;99.90;;;;;;5007542;28;20044;-44
2022/06/28 02:03:10;;;;;;;7.78;4.53;;;12.80;99.90;;;;;;5004829;28;20033;-42
2022/06/28 02:05:35;;;;;;;6.43;3.85;;;12.80;99.90;;;;;;5008933;28;20029;-46
2022/06/28 02:08:01;;;;;;;5.70;3.97;;;12.80;99.90;;;;;;5007960;28;20125;-42
2022/06/28 02:10:27;;;;;;;8.18;4.80;;;12.90;99.90;;;;;;5011792;28;20224;-42
2022/06/28 02:12:53;;;;;;;5.90;4.10;;;12.90;99.90;;;;;;5007581;28;20208;-48
2022/06/28 02:15:19;;;;;;;4.70;3.50;;;12.90;99.90;;;;;;5006814;28;20057;-43
2022/06/28 02:17:45;;;;;;;6.57;4.20;;;12.90;99.90;;;;;;5011067;28;20029;-43
2022/06/28 02:20:12;;;;;;;6.90;3.38;;;12.90;99.90;;;;;;5011380;28;20037;-42
2022/06/28 02:22:38;;;;;;;7.22;3.80;;;12.90;99.90;;;;;;5009999;28;20450;-43
2022/06/28 02:25:04;;;;;;;3.97;2.80;;;12.90;99.90;;;;;;5009396;28;20108;-43
2022/06/28 02:27:30;;;;;;;4.50;2.75;;;12.90;99.90;;;;;;5012098;28;20042;-42
2022/06/28 02:29:55;;;;;;;7.50;3.83;;;12.90;99.90;;;;;;5010504;28;20046;-46
2022/06/28 02:32:21;;;;;;;6.43;3.35;;;12.90;99.90;;;;;;5009211;28;20045;-43
2022/06/28 02:40:22;;;;;;;5.30;3.95;;;12.80;99.90;;;;;;5011678;28;20045;-42
2022/06/28 02:42:58;;;;;;;4.85;2.00;;;12.80;99.90;;;;;;5008947;28;20628;-44
2022/06/28 02:45:30;;;;;;;4.03;2.58;;;12.90;99.90;;;;;;5008447;28;20727;-42
2022/06/28 02:47:56;;;;;;;5.38;2.47;;;12.80;99.90;;;;;;5010733;28;20282;-43
2022/06/28 02:50:22;;;;;;;5.07;2.45;;;12.80;99.90;;;;;;5009178;28;20045;-44
2022/06/28 02:52:48;;;;;;;8.15;3.22;;;12.80;99.90;;;;;;5012909;28;20172;-44
2022/06/28 02:55:13;;;;;;;8.18;2.97;;;12.80;99.90;;;;;;5006907;28;20054;-43
2022/06/28 02:57:39;;;;;;;4.05;2.53;;;12.80;99.90;;;;;;5010410;28;20427;-42
2022/06/28 03:00:10;;;;;;;4.85;2.78;;;12.80;99.90;;;;;;5007398;28;20117;-42
2022/06/28 03:02:37;;;;;;;5.10;2.50;;;12.80;99.90;;;;;;5012394;28;20033;-44
2022/06/28 03:05:09;;;;;;;6.00;2.85;;;12.80;99.90;;;;;;5008267;28;20134;-46
2022/06/28 03:07:36;;;;;;;6.25;2.50;;;12.80;99.90;;;;;;5010953;28;20056;-45
2022/06/28 03:10:02;;;;;;;6.47;2.97;;;12.70;99.90;;;;;;5010811;28;20060;-41
2022/06/28 03:12:28;;;;;;;7.03;2.63;;;12.70;99.90;;;;;;5012505;28;20038;-41
2022/06/28 03:14:53;;;;;;;4.78;2.15;;;12.70;99.90;;;;;;5011902;28;20049;-45
2022/06/28 03:17:19;;;;;;;5.72;2.60;;;12.70;99.90;;;;;;5009129;28;20129;-44
2022/06/28 03:19:45;;;;;;;4.43;2.00;;;12.70;99.90;;;;;;5007457;28;20080;-43
2022/06/28 03:22:10;;;;;;;7.90;2.95;;;12.70;99.90;;;;;;5009776;28;20037;-42
2022/06/28 03:24:36;;;;;;;4.25;2.40;;;12.60;99.90;;;;;;5010402;28;20042;-43
2022/06/28 03:27:02;;;;;;;5.28;3.13;;;12.70;99.90;;;;;;5008989;28;20568;-42
2022/06/28 03:29:28;;;;;;;4.63;2.00;;;12.70;99.90;;;;;;5007001;28;20042;-42
2022/06/28 03:31:54;;;;;;;8.27;2.75;;;12.60;99.90;;;;;;5010721;28;20040;-44
2022/06/28 03:34:19;;;;;;;8.95;2.55;;;12.60;99.90;;;;;;5004759;28;20045;-45
2022/06/28 03:36:46;;;;;;;5.63;2.70;;;12.60;99.90;;;;;;5013982;28;20517;-43
2022/06/28 03:39:13;;;;;;;8.50;3.10;;;12.60;99.90;;;;;;5007400;28;20053;-45
2022/06/28 03:41:39;;;;;;;5.20;2.38;;;12.60;99.90;;;;;;5011802;28;20037;-43
2022/06/28 03:44:05;;;;;;;3.63;2.20;;;12.60;99.90;;;;;;5011948;28;20052;-43
2022/06/28 03:46:31;;;;;;;6.30;2.35;;;12.60;99.90;;;;;;5006929;28;20479;-43
2022/06/28 03:48:56;;;;;;;7.18;3.00;;;12.60;99.90;;;;;;5011074;28;20069;-43
2022/06/28 03:51:22;;;;;;;5.90;3.00;;;12.50;99.90;;;;;;5006732;28;20037;-42
2022/06/28 03:53:48;;;;;;;4.40;2.22;;;12.50;99.90;;;;;;5007541;28;20044;-41
2022/06/28 03:56:13;;;;;;;4.25;2.25;;;12.50;99.90;;;;;;5010201;28;20042;-46
2022/06/28 03:58:39;;;;;;;5.32;2.88;;;12.50;99.90;;;;;;5006987;28;20100;-41
2022/06/28 04:01:05;;;;;;;3.85;2.25;;;12.50;99.90;;;;;;5009575;28;20041;-44
2022/06/28 04:03:31;;;;;;;4.88;2.72;;;12.60;99.90;;;;;;5007314;28;20040;-43
2022/06/28 04:05:57;;;;;;;5.72;3.00;;;12.60;99.90;;;;;;5012184;28;20121;-44
2022/06/28 04:08:22;;;;;;;8.35;2.92;;;12.60;99.90;;;;;;5011418;28;20607;-44
2022/06/28 04:10:48;;;;;;;7.30;2.90;;;12.60;99.90;;;;;;5009326;28;20034;-44
2022/06/28 04:13:14;;;;;;;8.43;3.25;;;12.50;99.90;;;;;;5009764;28;20038;-42
2022/06/28 04:15:40;;;;;;;5.47;2.40;;;12.50;99.90;;;;;;5009622;28;20049;-42
2022/06/28 04:18:06;;;;;;;4.15;2.08;;;12.40;99.90;;;;;;5006083;28;20544;-46
2022/06/28 04:20:33;;;;;;;3.78;2.30;;;12.50;99.90;;;;;;5009430;28;20034;-42
2022/06/28 04:22:59;;;;;;;6.97;2.50;;;12.50;99.90;;;;;;5008579;28;20556;-43
2022/06/28 04:25:25;;;;;;;5.07;2.40;;;12.50;99.90;;;;;;5007247;28;20045;-44
2022/06/28 04:27:56;;;;;;;4.55;2.25;;;12.60;99.90;;;;;;5007691;28;20036;-44
2022/06/28 04:30:22;;;;;;;5.47;2.20;;;12.60;99.90;;;;;;5006780;28;20084;-46
2022/06/28 04:32:48;;;;;;;5.28;2.40;;;12.60;99.90;;;;;;5010834;28;20030;-45
2022/06/28 04:35:13;;;;;;;6.68;2.65;;;12.60;99.90;;;;;;5006839;28;20045;-43
2022/06/28 04:37:39;;;;;;;4.85;2.17;;;12.70;99.90;;;;;;5010563;28;20046;-43
2022/06/28 04:40:05;;;;;;;10.00;2.60;;;12.70;99.90;;;;;;5004757;28;20080;-43
2022/06/28 04:42:31;;;;;;;10.23;3.20;;;12.80;99.90;;;;;;5004579;28;20042;-44
2022/06/28 04:44:56;;;;;;;4.85;2.20;;;12.80;99.90;;;;;;5007670;28;20040;-43
2022/06/28 04:47:22;;;;;;;6.45;2.42;;;12.90;99.90;;;;;;5005984;28;20783;-48
2022/06/28 04:49:47;;;;;;;6.45;2.55;;;13.00;99.90;;;;;;5005134;28;20049;-42
2022/06/28 04:52:13;;;;;;;7.05;2.90;;;13.00;99.90;;;;;;5004347;28;20042;-43
2022/06/28 04:54:39;;;;;;;7.68;2.88;;;13.10;99.90;;;;;;5007500;28;20387;-45
2022/06/28 04:57:05;;;;;;;7.40;2.92;;;13.10;99.90;;;;;;5007688;28;20129;-44
2022/06/28 04:59:30;;;;;;;5.55;2.40;;;13.10;99.90;;;;;;5012689;28;20081;-43
2022/06/28 05:01:56;;;;;;;5.88;2.72;;;13.20;99.90;;;;;;5007650;28;20124;-43
2022/06/28 05:04:22;;;;;;;6.60;2.60;;;13.20;99.90;;;;;;5004307;28;20088;-48
2022/06/28 05:06:47;;;;;;;7.35;2.55;;;13.30;99.90;;;;;;5006767;28;20033;-42
2022/06/28 05:09:13;;;;;;;7.68;2.70;;;13.30;99.90;;;;;;5005780;28;20459;-44
2022/06/28 05:11:38;;;;;;;6.03;2.50;;;13.40;99.90;;;;;;5013843;28;20049;-44
2022/06/28 05:14:06;;;;;;;7.50;2.83;;;13.40;99.90;;;;;;5008570;28;20042;-50
2022/06/28 05:16:32;;;;;;;6.30;2.85;;;13.50;99.90;;;;;;5006966;28;20041;-44
2022/06/28 05:18:57;;;;;;;5.05;1.92;;;13.60;99.90;;;;;;5012583;28;20091;-43
2022/06/28 05:21:23;;;;;;;5.38;2.03;;;13.70;99.90;;;;;;5005874;28;20042;-48
2022/06/28 05:23:49;;;;;;;4.32;1.75;;;13.80;99.90;;;;;;5006472;28;20045;-42
2022/06/28 05:26:15;;;;;;;6.18;2.53;;;13.90;99.90;;;;;;5000849;28;20046;-44
2022/06/28 05:28:41;;;;;;;4.38;2.15;;;14.00;99.90;;;;;;5006524;28;20103;-49
2022/06/28 05:31:06;;;;;;;6.95;1.50;;;14.10;99.90;;;;;;5008376;28;20121;-45
2022/06/28 05:33:32;;;;;;;4.57;1.92;;;14.20;99.90;;;;;;5006725;28;20041;-47
2022/06/28 05:35:57;;;;;;;6.85;1.98;;;14.30;99.90;;;;;;5004075;28;20376;-44
2022/06/28 05:38:23;;;;;;;8.63;2.40;;;14.40;99.90;;;;;;4997159;28;20077;-46
2022/06/28 05:40:49;;;;;;;6.53;1.75;;;14.40;99.90;;;;;;5002247;28;20060;-43
2022/06/28 05:43:15;;;;;;;7.22;1.92;;;14.50;99.90;;;;;;5008577;28;20092;-44
2022/06/28 05:45:40;;;;;;;5.30;1.63;;;14.60;99.90;;;;;;5005943;28;20382;-44
2022/06/28 05:48:06;;;;;;;7.05;1.77;;;14.70;99.90;;;;;;5007374;28;20068;-45
2022/06/28 05:50:32;;;;;;;8.13;1.85;;;14.80;99.90;;;;;;5005018;28;20100;-42
2022/06/28 05:52:58;;;;;;;5.43;1.10;;;14.90;99.90;;;;;;5003562;28;20029;-48
2022/06/28 05:55:23;;;;;;;3.17;0.75;;;15.00;99.90;;;;;;5009115;28;20042;-45
2022/06/28 05:57:50;;;;;;;7.05;1.00;;;15.10;99.90;;;;;;5009290;28;20061;-44
2022/06/28 06:00:16;;;;;;;6.65;0.82;;;15.20;99.90;;;;;;5009543;28;20042;-44
2022/06/28 06:02:42;;;;;;;2.97;0.90;;;15.30;99.90;;;;;;5011170;28;20129;-46
2022/06/28 06:05:08;;;;;;;8.20;0.90;;;15.50;99.90;;;;;;5013282;28;20481;-45
2022/06/28 06:07:34;;;;;;;4.80;0.70;;;15.60;99.90;;;;;;5007714;28;20481;-45
2022/06/28 06:09:59;;;;;;;5.30;0.98;;;15.70;99.90;;;;;;5010172;28;20092;-45
2022/06/28 06:12:25;;;;;;;5.78;1.05;;;15.90;99.90;;;;;;5006124;28;20553;-46
2022/06/28 06:14:51;;;;;;;7.93;1.23;;;16.00;99.90;;;;;;5007134;28;20042;-46
2022/06/28 06:17:17;;;;;;;4.05;1.00;;;16.10;99.90;;;;;;5016031;28;20042;-46
2022/06/28 06:19:42;;;;;;;4.00;1.13;;;16.10;99.90;;;;;;5016239;28;20041;-44
2022/06/28 06:22:08;;;;;;;4.10;1.20;;;16.10;99.90;;;;;;5021171;28;20034;-44
2022/06/28 06:24:34;;;;;;;9.55;1.30;;;16.20;99.90;;;;;;5006642;28;20052;-44
2022/06/28 06:27:00;;;;;;;5.97;0.82;;;16.20;99.90;;;;;;5012400;28;20050;-44
2022/06/28 06:29:26;;;;;;;5.05;1.02;;;16.30;99.90;;;;;;5008497;28;20080;-45
2022/06/28 06:31:52;;;;;;;4.60;1.23;;;16.30;99.90;;;;;;5009941;28;20087;-45
2022/06/28 06:34:18;;;;;;;6.60;1.60;;;16.40;99.90;;;;;;5009886;28;20132;-44
2022/06/28 06:36:45;;;;;;;8.57;1.30;;;16.50;99.90;;;;;;5007622;28;20049;-44
2022/06/28 06:39:11;;;;;;;5.72;0.80;;;16.50;99.90;;;;;;5009427;28;20133;-45
2022/06/28 06:41:36;;;;;;;5.80;1.42;;;16.50;99.90;;;;;;5011194;28;20276;-47
2022/06/28 06:44:02;;;;;;;8.50;1.73;;;16.60;99.90;;;;;;5013898;28;20048;-43
2022/06/28 06:46:28;;;;;;;9.60;1.70;;;16.70;99.90;;;;;;5011858;28;20030;-46
2022/06/28 06:48:53;;;;;;;7.97;1.35;;;16.70;99.90;;;;;;5008897;28;20043;-41
2022/06/28 06:51:19;;;;;;;6.90;1.30;;;16.70;99.90;;;;;;5009185;28;20072;-46
2022/06/28 06:53:45;;;;;;;11.95;1.70;;;16.80;99.90;;;;;;4982660;28;20446;-47
2022/06/28 06:56:11;;;;;;;5.43;1.33;;;16.90;99.90;;;;;;5008122;28;20033;-46
2022/06/28 06:58:37;;;;;;;7.65;1.45;;;16.90;99.90;;;;;;5008322;28;20649;-45
2022/06/28 07:01:03;;;;;;;10.65;1.58;;;17.00;99.90;;;;;;5004884;28;20069;-45
2022/06/28 07:03:29;;;;;;;4.80;1.83;;;17.00;99.90;;;;;;5010938;28;20060;-46
2022/06/28 07:05:54;;;;;;;7.75;1.80;;;17.10;99.90;;;;;;5008526;28;20475;-42
2022/06/28 07:08:21;;;;;;;6.30;1.50;;;17.10;99.90;;;;;;5006410;28;20049;-46
2022/06/28 07:10:47;;;;;;;7.45;1.73;;;17.20;99.90;;;;;;5003414;28;20133;-46
2022/06/28 07:13:12;;;;;;;10.82;1.55;;;17.20;99.90;;;;;;4988685;28;20073;-47
2022/06/28 07:15:38;;;;;;;5.75;1.90;;;17.30;99.90;;;;;;4996348;28;20042;-53
2022/06/28 07:18:04;;;;;;;11.32;2.38;;;17.40;99.90;;;;;;4992557;28;20039;-50
2022/06/28 07:20:30;;;;;;;8.85;1.95;;;17.50;99.90;;;;;;4993037;28;20636;-51
2022/06/28 07:22:56;;;;;;;7.30;1.80;;;17.50;99.90;;;;;;4992235;28;20038;-43
2022/06/28 07:25:21;;;;;;;7.05;2.00;;;17.60;99.90;;;;;;4992608;28;20038;-41
2022/06/28 07:27:47;;;;;;;7.00;1.70;;;17.70;99.90;;;;;;4993490;28;20132;-46
2022/06/28 07:30:13;;;;;;;10.00;1.65;;;17.90;99.90;;;;;;5005256;28;20080;-48
2022/06/28 07:32:39;;;;;;;8.90;1.92;;;18.00;99.90;;;;;;5001614;28;20473;-45
2022/06/28 07:35:06;;;;;;;8.57;1.77;;;18.00;99.90;;;;;;5002188;28;20064;-47
2022/06/28 07:37:32;;;;;;;6.20;2.13;;;18.20;99.90;;;;;;4994792;28;20077;-46
2022/06/28 07:39:57;;;;;;;8.60;1.90;;;18.30;99.90;;;;;;4988737;28;20077;-48
2022/06/28 07:42:23;;;;;;;9.15;2.45;;;18.40;99.90;;;;;;4999497;28;20065;-46
2022/06/28 07:44:49;;;;;;;7.10;1.90;;;18.50;99.90;;;;;;4990366;28;20530;-49
2022/06/28 07:47:15;;;;;;;8.35;2.17;;;18.50;99.90;;;;;;4991072;28;20046;-49
2022/06/28 07:52:34;;;;;;;6.50;1.77;;;18.80;99.90;;;;;;4981101;28;21370;-50
2022/06/28 07:55:00;;;;;;;5.93;1.45;;;18.90;99.90;;;;;;4994553;28;20072;-49
2022/06/28 07:57:27;;;;;;;7.82;1.60;;;19.00;99.90;;;;;;4983708;28;20061;-47
2022/06/28 07:59:53;;;;;;;6.25;1.40;;;18.90;99.90;;;;;;4992010;28;20042;-48
2022/06/28 08:02:19;;;;;;;4.53;1.38;;;18.80;99.90;;;;;;4991198;28;20078;-44
2022/06/28 08:04:46;;;;;;;4.88;1.00;;;18.60;99.90;;;;;;4995352;28;20072;-46
2022/06/28 08:07:12;;;;;;;7.55;0.88;;;18.50;99.90;;;;;;4997185;28;20359;-44
2022/06/28 08:09:37;;;;;;;4.97;1.23;;;18.50;99.90;;;;;;4996531;28;20049;-44
2022/06/28 08:12:05;;;;;;;6.22;1.00;;;18.60;99.90;;;;;;4991250;28;20379;-45
2022/06/28 08:14:30;;;;;;;4.85;1.05;;;18.70;99.90;;;;;;4994656;28;20058;-45
2022/06/28 08:16:56;;;;;;;9.95;1.30;;;18.60;99.90;;;;;;4999514;28;20461;-44
2022/06/28 08:19:23;;;;;;;6.25;1.27;;;18.60;99.90;;;;;;4991455;28;20118;-43
2022/06/28 08:21:49;;;;;;;6.00;0.95;;;18.80;99.90;;;;;;4993436;28;20034;-45
2022/06/28 08:24:15;;;;;;;6.07;1.17;;;18.90;99.90;;;;;;5002667;28;20038;-46
2022/06/28 08:26:42;;;;;;;4.85;1.23;;;19.10;99.90;;;;;;4989903;28;20050;-44
2022/06/28 08:29:17;;;;;;;5.88;1.17;;;19.30;99.90;;;;;;4989514;28;20046;-45
2022/06/28 08:31:44;;;;;;;4.68;0.80;;;19.50;99.90;;;;;;4991067;28;20110;-45
2022/06/28 08:34:10;;;;;;;5.85;1.10;;;19.60;99.90;;;;;;4993452;28;20113;-45
2022/06/28 08:36:36;;;;;;;7.18;1.15;;;19.80;99.90;;;;;;4994325;28;20081;-45
2022/06/28 08:39:03;;;;;;;3.95;0.80;;;19.80;99.80;;;;;;4993097;28;20046;-45
2022/06/28 08:41:32;;;;;;;3.00;0.80;;;19.90;98.60;;;;;;4988535;28;20053;-49
2022/06/28 08:43:58;;;;;;;4.55;0.77;;;19.90;97.10;;;;;;4982496;28;20097;-46
2022/06/28 08:46:24;;;;;;;3.70;0.85;;;20.00;95.30;;;;;;4979792;28;20444;-49
2022/06/28 08:48:55;;;;;;;3.20;0.68;;;20.10;93.80;;;;;;4986939;28;20030;-44
2022/06/28 08:51:22;;;;;;;3.33;0.70;;;20.20;93.30;;;;;;4996223;28;20453;-42
2022/06/28 08:53:48;;;;;;;6.72;0.82;;;20.30;93.30;;;;;;5002439;28;20045;-46
2022/06/28 08:56:15;;;;;;;3.58;0.70;;;20.30;92.10;;;;;;5001592;28;20112;-49
2022/06/28 08:58:42;;;;;;;4.55;0.80;;;20.30;92.00;;;;;;4991662;28;20099;-46
2022/06/28 09:01:09;;;;;;;3.60;0.77;;;20.40;91.90;;;;;;4987917;28;20037;-49
2022/06/28 09:03:37;;;;;;;3.50;0.52;;;20.40;90.90;;;;;;4981117;28;20030;-47
2022/06/28 09:06:03;;;;;;;2.60;0.50;;;20.50;90.40;;;;;;4986246;28;20053;-45
2022/06/28 09:08:29;;;;;;;4.40;0.90;;;20.40;90.30;;;;;;4992457;28;20034;-46
2022/06/28 09:10:55;;;;;;;2.15;0.60;;;20.40;90.40;;;;;;4988983;28;20038;-47
2022/06/28 09:13:21;;;;;;;2.65;0.50;;;20.30;89.30;;;;;;4993999;28;20054;-45
2022/06/28 09:15:53;;;;;;;3.72;0.88;;;20.20;89.70;;;;;;4985788;28;20126;-49
2022/06/28 09:18:22;;;;;;;3.20;0.60;;;20.20;89.20;;;;;;4986338;28;20699;-45
2022/06/28 09:20:52;;;;;;;2.50;0.73;;;20.30;88.40;;;;;;4988283;28;20551;-54
2022/06/28 09:23:33;;;;;;;4.53;0.60;;;20.40;89.70;;;;;;4989989;28;20121;-48
2022/06/28 09:26:13;;;;;;;6.00;0.95;;;20.70;80.80;;;;;;5000813;28;20410;-42
2022/06/28 09:28:42;;;;;;;3.10;1.13;;;20.70;78.80;;;;;;4987187;28;20038;-45
2022/06/28 09:31:28;;;;;;;4.15;0.60;;;20.70;82.50;;;;;;4989249;28;20272;-48
2022/06/28 09:33:59;;;;;;;5.85;1.02;;;20.80;79.10;;;;;;4989272;28;20045;-48
2022/06/28 09:36:25;;;;;;;4.25;0.73;;;20.80;76.40;;;;;;4988080;28;20038;-50
2022/06/28 09:38:53;;;;;;;4.28;0.80;;;20.70;81.10;;;;;;4989326;28;20519;-44
2022/06/28 09:41:30;;;;;;;2.72;0.60;;;20.80;80.90;;;;;;4990851;28;20514;-48
2022/06/28 09:44:00;;;;;;;2.92;0.50;;;20.80;77.10;;;;;;4991864;28;20042;-50
2022/06/28 09:46:31;;;;;;;3.38;0.52;;;20.80;80.10;;;;;;4985892;28;20035;-50
2022/06/28 09:49:15;;;;;;;3.38;0.60;;;20.90;80.90;;;;;;4985816;28;20179;-50
2022/06/28 09:51:42;;;;;;;2.08;0.40;;;21.00;75.20;;;;;;4997383;28;20045;-50
2022/06/28 09:54:09;;;;;;;3.08;0.50;;;21.10;73.80;;;;;;4985622;28;20550;-47
2022/06/28 09:56:47;;;;;;;4.35;0.55;;;21.10;73.40;;;;;;4989977;28;20478;-48
2022/06/28 09:59:12;;;;;;;2.17;0.55;;;21.10;73.50;;;;;;4986398;28;20109;-47
2022/06/28 10:01:38;;;;;;;6.03;0.50;;;21.20;74.40;;;;;;4986126;28;20125;-49
2022/06/28 10:04:06;;;;;;;1.70;0.40;;;21.30;75.60;;;;;;4990464;28;20128;-48
2022/06/28 10:06:33;;;;;;;2.30;0.40;;;21.50;74.80;;;;;;4987396;28;20097;-46
2022/06/28 10:08:59;;;;;;;4.00;0.90;;;21.60;73.90;;;;;;4985617;28;20489;-45
2022/06/28 10:11:25;;;;;;;2.72;0.50;;;21.70;73.10;;;;;;4991010;28;20030;-52
2022/06/28 10:16:47;;;;;;;1.00;0.30;;;21.80;70.50;;;;;;4987997;28;20487;-46
2022/06/28 10:19:22;;;;;;;2.65;0.40;;;21.80;71.20;;;;;;4983761;28;20042;-51
2022/06/28 10:21:54;;;;;;;1.30;0.40;;;21.60;66.20;;;;;;4987047;28;20061;-47
2022/06/28 10:24:20;;;;;;;2.47;0.50;;;21.60;71.00;;;;;;4988419;28;20058;-46
2022/06/28 10:27:15;;;;;;;1.88;0.45;;;21.60;72.20;;;;;;5001424;28;20490;-44
2022/06/28 10:30:15;;;;;;;2.60;0.40;;;21.80;72.80;;;;;;4992848;28;20624;-49
2022/06/28 10:32:51;;;;;;;7.07;0.52;;;21.90;63.60;;;;;;4995091;28;20038;-48
2022/06/28 10:35:28;;;;;;;2.10;0.50;;;22.00;67.50;;;;;;4992357;28;20049;-49
2022/06/28 10:38:09;;;;;;;2.30;0.43;;;22.10;65.20;;;;;;4991202;28;20042;-46
2022/06/28 10:40:38;;;;;;;3.13;0.60;;;22.30;61.20;;;;;;4987278;28;20177;-46
2022/06/28 10:43:04;;;;;;;4.18;0.55;;;22.40;62.60;;;;;;4990218;28;20529;-47
2022/06/28 10:46:05;;;;;;;2.38;0.52;;;22.60;62.60;;;;;;4997229;28;20047;-46
2022/06/28 10:48:51;;;;;;;3.08;0.40;;;22.60;58.00;;;;;;4989513;28;20042;-49
2022/06/28 10:51:19;;;;;;;2.75;0.40;;;22.70;63.00;;;;;;4996033;28;20053;-50
2022/06/28 10:53:57;;;;;;;5.10;0.50;;;22.50;63.70;;;;;;5005330;28;20533;-50
2022/06/28 10:56:24;;;;;;;2.15;0.30;;;22.20;61.00;;;;;;4984660;28;20126;-48
2022/06/28 10:59:05;;;;;;;2.30;0.57;;;22.00;63.20;;;;;;4992699;28;20147;-44
2022/06/28 11:01:40;;;;;;;3.40;0.40;;;22.00;60.80;;;;;;4996952;28;20444;-46
2022/06/28 11:04:21;;;;;;;6.03;0.57;;;22.10;60.30;;;;;;4994483;28;20095;-52
2022/06/28 11:06:50;;;;;;;2.10;0.50;;;22.30;59.40;;;;;;4990456;28;20122;-48
2022/06/28 11:09:30;;;;;;;2.35;0.30;;;22.50;59.10;;;;;;4995862;28;20487;-48
2022/06/28 11:12:18;;;;;;;5.10;0.52;;;22.70;54.80;;;;;;4991159;28;20113;-46
2022/06/28 11:15:03;;;;;;;3.20;0.47;;;23.00;59.70;;;;;;4987992;28;20046;-46
2022/06/28 11:17:43;;;;;;;1.27;0.40;;;23.10;52.10;;;;;;4994025;28;20046;-45
2022/06/28 11:20:11;;;;;;;3.20;0.40;;;23.10;55.90;;;;;;4998630;28;20061;-42
2022/06/28 11:22:41;;;;;;;1.08;0.40;;;23.20;55.80;;;;;;4985981;28;20499;-43
2022/06/28 11:25:13;;;;;;;4.80;0.82;;;23.10;54.70;;;;;;4989413;28;20078;-47
2022/06/28 11:27:53;;;;;;;4.90;0.80;;;23.20;54.90;;;;;;4992783;28;20042;-41
2022/06/28 11:30:23;;;;;;;3.20;0.50;;;23.20;53.40;;;;;;4991752;28;20128;-42
2022/06/28 11:32:50;;;;;;;2.65;0.40;;;23.20;54.30;;;;;;4988909;28;20480;-48
2022/06/28 11:35:18;;;;;;;3.50;0.30;;;23.20;54.20;;;;;;4989681;28;20086;-46
2022/06/28 11:37:54;;;;;;;2.13;0.40;;;23.20;52.70;;;;;;4992200;28;20038;-49
2022/06/28 11:40:21;;;;;;;1.90;0.40;;;23.30;51.00;;;;;;4990014;28;20039;-45
2022/06/28 11:42:58;;;;;;;3.05;0.40;;;23.40;52.10;;;;;;4991529;28;20485;-44
2022/06/28 11:45:24;;;;;;;5.63;0.50;;;23.40;52.00;;;;;;4989857;28;20054;-44
2022/06/28 11:47:50;;;;;;;2.80;0.40;;;23.50;51.60;;;;;;4994646;28;20398;-47
2022/06/28 11:50:18;;;;;;;4.07;0.65;;;23.40;51.00;;;;;;4993275;28;20046;-49
2022/06/28 11:52:56;;;;;;;3.08;0.50;;;23.50;50.40;;;;;;4993956;28;20095;-53
2022/06/28 11:55:46;;;;;;;3.20;0.45;;;23.60;50.50;;;;;;4988230;28;20042;-44
2022/06/28 11:58:29;;;;;;;4.60;0.47;;;23.70;49.40;;;;;;4976285;28;20061;-47
2022/06/28 12:01:08;;;;;;;2.97;0.50;;;23.70;48.80;;;;;;4989949;28;20042;-45
2022/06/28 12:03:57;;;;;;;2.65;0.57;;;23.70;49.20;;;;;;4984688;28;20096;-46
2022/06/28 12:06:31;;;;;;;2.80;0.50;;;23.70;49.00;;;;;;4995998;28;20046;-45
2022/06/28 12:09:03;;;;;;;2.58;0.50;;;23.70;49.20;;;;;;4991037;28;20085;-45
2022/06/28 12:11:49;;;;;;;2.28;0.50;;;23.70;47.90;;;;;;4989016;28;20069;-46
2022/06/28 12:14:22;;;;;;;1.65;0.28;;;23.70;48.60;;;;;;4985660;28;20137;-45
2022/06/28 12:16:49;;;;;;;3.92;0.60;;;23.80;49.70;;;;;;4993809;28;20045;-46
2022/06/28 12:19:25;;;;;;;2.80;0.60;;;23.90;49.60;;;;;;4986722;28;20443;-49
2022/06/28 12:22:12;;;;;;;2.55;0.50;;;24.20;49.20;;;;;;4990798;28;20070;-52
2022/06/28 12:24:40;;;;;;;2.70;0.55;;;24.40;48.70;;;;;;4993804;28;20060;-45
2022/06/28 12:27:06;;;;;;;4.93;0.60;;;24.40;48.20;;;;;;4994603;28;20097;-51
2022/06/28 12:29:32;;;;;;;2.35;0.40;;;24.20;47.60;;;;;;4994426;28;20116;-42
2022/06/28 12:31:59;;;;;;;3.47;0.40;;;24.20;48.10;;;;;;4992766;28;20515;-40
2022/06/28 12:34:25;;;;;;;2.42;0.40;;;24.20;48.40;;;;;;4989770;28;20415;-40
2022/06/28 12:36:50;;;;;;;4.22;0.45;;;24.30;49.10;;;;;;4990838;28;20034;-49
2022/06/28 12:39:16;;;;;;;1.92;0.50;;;24.30;48.10;;;;;;4989596;28;20125;-50
2022/06/28 12:41:41;;;;;;;3.13;0.60;;;24.40;48.00;;;;;;4989818;28;20043;-48
2022/06/28 12:44:08;;;;;;;2.65;0.50;;;24.40;47.70;;;;;;4992302;28;20552;-49
2022/06/28 12:46:33;;;;;;;3.90;0.47;;;24.20;47.50;;;;;;4992521;28;20121;-44
2022/06/28 12:49:00;;;;;;;2.83;0.60;;;24.40;47.90;;;;;;4999979;28;20125;-47
2022/06/28 12:51:26;;;;;;;2.05;0.40;;;24.50;47.70;;;;;;5004737;28;20468;-48
2022/06/28 12:53:51;;;;;;;4.18;0.40;;;24.70;47.30;;;;;;4994324;28;20029;-46
2022/06/28 12:56:17;;;;;;;3.10;0.70;;;24.80;46.10;;;;;;4988288;28;20084;-46
2022/06/28 12:58:47;;;;;;;4.72;0.55;;;24.80;45.60;;;;;;4991424;28;20038;-50
2022/06/28 13:01:14;;;;;;;1.42;0.40;;;24.90;46.30;;;;;;4991853;28;20077;-49
2022/06/28 13:03:40;;;;;;;3.90;0.50;;;24.80;46.20;;;;;;4986314;28;20505;-54